This is the latest recevied weather packets stored in our database for station/object K5MJM. If no packets are shown the sender has not sent any weather packets the latest 10 day(s).
| Time | Temp. | Humidity | Pressure | Rain* | Wind** | Luminosity | Snow |
|---|---|---|---|---|---|---|---|
| 1777263918 | 23.89° C | 71% | 1003.8 hPa | 0 mm | - | - | - |
| 1777263318 | 23.89° C | 71% | 1004.1 hPa | 0 mm | - | - | - |
| 1777259718 | 23.89° C | 70% | 1003.9 hPa | 0 mm | - | - | - |
| 1777258518 | 24.44° C | 69% | 1003.8 hPa | 0 mm | - | - | - |
| 1777256118 | 25° C | 67% | 1003.5 hPa | 0 mm | - | - | - |
| 1777254339 | 25.56° C | 65% | 1003.3 hPa | 0 mm | - | - | - |
| 1777250118 | 27.22° C | 60% | 1003.2 hPa | 0 mm | - | - | - |
| 1777249539 | 27.78° C | 59% | 1003.3 hPa | 0 mm | - | - | - |
| 1777245918 | 29.44° C | 55% | 1003.4 hPa | 0 mm | - | - | - |
| 1777244718 | 30° C | 53% | 1003.3 hPa | 0 mm | - | - | - |
| 1777242918 | 30.56° C | 52% | 1003.4 hPa | 0 mm | - | - | - |
| 1777240518 | 30.56° C | 51% | 1003.6 hPa | 0 mm | - | - | - |
| 1777239318 | 30.56° C | 51% | 1003.7 hPa | 0 mm | - | - | - |
| 1777238718 | 31.11° C | 50% | 1003.9 hPa | 0 mm | - | - | - |
| 1777236318 | 31.11° C | 50% | 1004.7 hPa | 0 mm | - | - | - |
| 1777232728 | 30.56° C | 51% | 1005.4 hPa | 0 mm | - | - | - |
| 1777228518 | 28.33° C | 61% | 1006.6 hPa | 0 mm | - | - | - |
| 1777227938 | 28.89° C | 58% | 1006.5 hPa | 0 mm | - | - | - |
| 1777224918 | 27.22° C | 63% | 1007.3 hPa | 0 mm | - | - | - |
| 1777223718 | 27.22° C | 62% | 1007.3 hPa | 0 mm | - | - | - |
| 1777218918 | 25.56° C | 63% | 1008 hPa | 0 mm | - | - | - |
| 1777215938 | 23.89° C | 63% | 1008.3 hPa | 0 mm | - | - | - |
| 1777215318 | 23.33° C | 63% | 1008.3 hPa | 0 mm | - | - | - |
| 1777208117 | 18.33° C | 83% | 1008.4 hPa | 0 mm | - | - | - |
| 1777206338 | 18.33° C | 84% | 1008.4 hPa | 0 mm | - | - | - |
* Rain latest hour (hover to see other rain measurements)
** Current wind speed in m/s (hover to see current wind gust speed)